Time;durP1;ratioP1;P1;durP2;ratioP2;P2;SDS_P1;SDS_P2;PMS_P1;PMS_P2;Temp;Humidity;BMP_temperature;BMP_pressure;BME280_temperature;BME280_humidity;BME280_pressure;Samples;Min_cycle;Max_cycle;Signal;HPM_P1;HPM_P2
2022/11/06 00:00:24;;;;;;;11.52;4.95;;;;;;;8.46;100.00;101184.13;2087688;28;30266;-71
2022/11/06 00:01:26;;;;;;;9.43;4.85;;;;;;;8.45;100.00;101185.00;2087672;28;31617;-71
2022/11/06 00:02:29;;;;;;;8.98;4.40;;;;;;;8.47;100.00;101183.22;2085786;28;37090;-72
2022/11/06 00:03:34;;;;;;;9.90;4.47;;;;;;;8.48;100.00;101178.75;2070102;28;23651;-71
2022/11/06 00:04:35;;;;;;;6.75;4.13;;;;;;;8.49;100.00;101191.19;2070945;28;33600;-71
2022/11/06 00:07:02;;;;;;;9.52;4.18;;;;;;;8.49;100.00;101183.19;2079473;28;32059;-71
2022/11/06 00:08:04;;;;;;;9.27;4.35;;;;;;;8.50;100.00;101174.28;2079557;28;26124;-72
2022/11/06 00:09:09;;;;;;;5.95;4.40;;;;;;;8.47;100.00;101169.88;2108583;22;25113;-74
2022/11/06 00:10:17;;;;;;;8.70;4.50;;;;;;;8.50;100.00;101174.28;2096273;28;29033;-74
2022/11/06 00:11:19;;;;;;;9.52;4.22;;;;;;;8.48;100.00;101174.31;2095186;28;36864;-74
2022/11/06 00:12:20;;;;;;;9.85;4.85;;;;;;;8.48;100.00;101173.44;2095524;28;34557;-74
2022/11/06 00:13:22;;;;;;;10.63;4.57;;;;;;;8.49;100.00;101177.84;2103522;28;30240;-74
2022/11/06 00:14:24;;;;;;;9.70;4.53;;;;;;;8.49;100.00;101183.19;2104857;28;30800;-74
2022/11/06 00:15:27;;;;;;;7.07;4.10;;;;;;;8.49;100.00;101172.50;2088006;28;27955;-74
2022/11/06 00:16:29;;;;;;;6.10;4.00;;;;;;;8.49;100.00;101167.16;2078822;28;29255;-74
2022/11/06 00:17:30;;;;;;;8.45;3.97;;;;;;;8.47;100.00;101166.31;2086748;28;28475;-74
2022/11/06 00:18:33;;;;;;;9.55;4.03;;;;;;;8.46;100.00;101162.75;2087620;28;33790;-74
2022/11/06 00:19:35;;;;;;;7.38;4.18;;;;;;;8.44;100.00;101158.34;2087166;28;39045;-74
2022/11/06 00:20:36;;;;;;;7.93;4.18;;;;;;;8.45;100.00;101157.44;2088100;28;20041;-74
2022/11/06 00:21:38;;;;;;;7.60;4.03;;;;;;;8.42;100.00;101155.69;2087552;28;33065;-74
2022/11/06 00:22:42;;;;;;;9.60;4.00;;;;;;;8.40;100.00;101158.34;2087654;28;26836;-74
2022/11/06 00:23:44;;;;;;;8.93;4.32;;;;;;;8.39;100.00;101163.69;2087632;28;27132;-74
2022/11/06 00:24:48;;;;;;;8.38;4.18;;;;;;;8.37;100.00;101153.03;2086812;28;31666;-74
2022/11/06 00:25:54;;;;;;;9.02;4.32;;;;;;;8.39;100.00;101161.03;2087197;28;20049;-74
2022/11/06 00:26:56;;;;;;;8.00;4.35;;;;;;;8.39;100.00;101156.56;2086735;28;32058;-74
2022/11/06 00:27:58;;;;;;;7.10;4.40;;;;;;;8.40;100.00;101157.47;2079977;28;20045;-74
2022/11/06 00:29:01;;;;;;;9.40;4.35;;;;;;;8.37;100.00;101162.84;2070727;28;33035;-72
2022/11/06 00:30:08;;;;;;;7.63;3.97;;;;;;;8.36;100.00;101161.06;2078689;28;37087;-74
2022/11/06 00:31:14;;;;;;;7.72;3.92;;;;;;;8.39;100.00;101153.91;2089133;28;32279;-73
2022/11/06 00:32:15;;;;;;;8.45;4.20;;;;;;;8.38;100.00;101154.81;2088442;28;37750;-74
2022/11/06 00:33:17;;;;;;;11.40;4.72;;;;;;;8.37;100.00;101153.03;2088561;28;30835;-73
2022/11/06 00:34:19;;;;;;;6.90;4.35;;;;;;;8.39;100.00;101158.34;2088808;28;35153;-74
2022/11/06 00:35:21;;;;;;;8.38;4.22;;;;;;;8.35;100.00;101144.16;2088672;28;38567;-73
2022/11/06 00:36:24;;;;;;;8.88;3.95;;;;;;;8.34;100.00;101154.84;2088601;28;36694;-74
2022/11/06 00:37:26;;;;;;;8.32;4.25;;;;;;;8.30;100.00;101148.66;2088000;28;34202;-73
2022/11/06 00:38:27;;;;;;;7.35;4.35;;;;;;;8.32;100.00;101154.00;2088871;28;27280;-73
2022/11/06 00:39:29;;;;;;;11.90;4.50;;;;;;;8.29;100.00;101154.00;2089351;28;20042;-73
2022/11/06 00:40:31;;;;;;;9.00;4.43;;;;;;;8.31;100.00;101155.78;2089193;28;36975;-73
2022/11/06 00:41:33;;;;;;;8.52;4.50;;;;;;;8.31;100.00;101158.44;2088709;28;37190;-74
2022/11/06 00:42:34;;;;;;;10.80;4.40;;;;;;;8.28;100.00;101152.25;2089394;28;21896;-74
2022/11/06 00:43:36;;;;;;;9.02;4.38;;;;;;;8.26;100.00;101148.72;2088792;28;29397;-74
2022/11/06 00:44:38;;;;;;;8.32;4.22;;;;;;;8.26;100.00;101154.94;2087998;28;35068;-73
2022/11/06 00:45:40;;;;;;;8.93;4.32;;;;;;;8.27;100.00;101151.34;2089070;28;23297;-72
2022/11/06 00:46:41;;;;;;;8.63;4.45;;;;;;;8.28;100.00;101147.81;2088457;28;37681;-74
2022/11/06 00:47:46;;;;;;;9.93;4.20;;;;;;;8.27;100.00;101153.16;2089537;28;20872;-74
2022/11/06 00:48:48;;;;;;;9.07;4.50;;;;;;;8.28;100.00;101150.47;2088655;28;38053;-74
2022/11/06 00:49:50;;;;;;;8.85;4.43;;;;;;;8.26;100.00;101154.06;2088793;28;28945;-74
2022/11/06 00:50:52;;;;;;;6.88;4.07;;;;;;;8.26;100.00;101149.59;2087734;28;33991;-74
2022/11/06 00:51:53;;;;;;;9.10;4.22;;;;;;;8.25;100.00;101150.50;2088260;28;30941;-74
2022/11/06 00:52:55;;;;;;;7.03;4.60;;;;;;;8.32;100.00;101152.19;2088316;28;31404;-74
2022/11/06 00:54:04;;;;;;;8.65;4.38;;;;;;;8.30;100.00;101148.66;2095030;28;33176;-71
2022/11/06 00:55:06;;;;;;;7.07;4.50;;;;;;;8.34;100.00;101147.72;2088614;28;35313;-73
2022/11/06 00:56:14;;;;;;;8.50;4.40;;;;;;;8.32;100.00;101141.53;2088351;28;35134;-73
2022/11/06 00:57:16;;;;;;;7.90;4.50;;;;;;;8.35;100.00;101146.84;2087985;28;34200;-73
2022/11/06 00:58:17;;;;;;;8.70;4.13;;;;;;;8.35;100.00;101154.84;2088912;28;20042;-73
2022/11/06 00:59:19;;;;;;;8.02;4.57;;;;;;;8.36;100.00;101151.28;2088594;28;26869;-73
2022/11/06 01:00:22;;;;;;;9.00;4.90;;;;;;;8.36;100.00;101156.63;2088487;28;37896;-74
2022/11/06 01:01:31;;;;;;;9.68;4.07;;;;;;;8.35;100.00;101149.50;2089602;28;20041;-73
2022/11/06 01:02:33;;;;;;;8.35;4.78;;;;;;;8.37;100.00;101147.69;2090112;28;20115;-74
2022/11/06 01:03:36;;;;;;;9.43;4.57;;;;;;;8.37;100.00;101144.16;2087878;28;32426;-74
2022/11/06 01:04:38;;;;;;;7.78;4.55;;;;;;;8.36;100.00;101137.94;2072071;28;33656;-73
2022/11/06 01:05:40;;;;;;;7.43;3.72;;;;;;;8.37;100.00;101153.03;2079670;28;37624;-73
2022/11/06 01:06:46;;;;;;;8.55;4.18;;;;;;;8.39;100.00;101145.91;2088257;28;22468;-73
2022/11/06 01:07:48;;;;;;;8.65;4.72;;;;;;;8.37;100.00;101150.38;2087956;28;31932;-72
2022/11/06 01:08:51;;;;;;;9.05;4.55;;;;;;;8.38;99.93;101153.91;2087655;28;38240;-73
2022/11/06 01:09:53;;;;;;;9.70;4.70;;;;;;;8.39;100.00;101147.69;2088971;28;25204;-73
2022/11/06 01:10:54;;;;;;;7.78;4.53;;;;;;;8.37;100.00;101146.81;2088812;28;33799;-73
2022/11/06 01:11:58;;;;;;;10.05;4.78;;;;;;;8.37;100.00;101141.50;2088408;28;32882;-73
2022/11/06 01:13:16;;;;;;;8.63;4.25;;;;;;;8.36;100.00;101139.72;2086367;28;27045;-73
2022/11/06 01:14:19;;;;;;;7.35;4.05;;;;;;;8.37;100.00;101142.38;2088524;28;25015;-73
2022/11/06 01:15:21;;;;;;;8.45;4.82;;;;;;;8.37;100.00;101137.03;2087941;28;30480;-73
2022/11/06 01:16:25;;;;;;;9.25;4.35;;;;;;;8.37;100.00;101142.38;2087807;28;38918;-73
2022/11/06 01:17:27;;;;;;;9.43;4.25;;;;;;;8.41;100.00;101137.88;2088606;28;34821;-73
2022/11/06 01:18:29;;;;;;;10.65;5.10;;;;;;;8.44;100.00;101139.69;2088572;28;30737;-73
2022/11/06 01:19:31;;;;;;;7.63;4.28;;;;;;;8.45;99.24;101130.75;2087395;28;39845;-73
2022/11/06 01:20:32;;;;;;;9.40;4.53;;;;;;;8.46;99.70;101130.75;2087469;28;35202;-72
2022/11/06 01:21:38;;;;;;;7.53;4.75;;;;;;;8.48;99.90;101138.75;2088566;28;33945;-73
2022/11/06 01:22:40;;;;;;;12.13;4.72;;;;;;;8.48;99.25;101133.41;2088122;28;31271;-73
2022/11/06 01:23:43;;;;;;;10.80;4.53;;;;;;;8.47;99.51;101120.94;2080311;28;29605;-73
2022/11/06 01:24:45;;;;;;;9.98;4.78;;;;;;;8.50;98.53;101131.59;2087635;28;37879;-73
2022/11/06 01:25:58;;;;;;;6.55;4.38;;;;;;;8.53;99.20;101128.91;2088594;28;26495;-73
2022/11/06 01:27:00;;;;;;;10.90;4.80;;;;;;;8.54;98.50;101125.31;2088589;28;28434;-73
2022/11/06 01:28:22;;;;;;;8.52;4.75;;;;;;;8.55;98.50;101122.63;2089382;28;20041;-73
2022/11/06 01:29:24;;;;;;;7.93;4.32;;;;;;;8.56;99.18;101124.41;2087791;28;33753;-73
2022/11/06 01:30:26;;;;;;;9.82;4.78;;;;;;;8.58;98.09;101129.75;2087426;28;38202;-73
2022/11/06 01:31:31;;;;;;;11.48;5.53;;;;;;;8.56;98.13;101121.75;2088299;28;35706;-73
2022/11/06 01:32:33;;;;;;;12.20;4.45;;;;;;;8.57;99.16;101117.28;2096096;28;36963;-71
2022/11/06 01:33:38;;;;;;;7.30;4.10;;;;;;;8.56;99.40;101120.84;2088397;28;20034;-73
2022/11/06 01:34:40;;;;;;;10.15;4.50;;;;;;;8.56;98.59;101126.16;2088444;28;20894;-73
2022/11/06 01:35:50;;;;;;;9.48;4.45;;;;;;;8.57;98.62;101117.28;2088131;28;33679;-73
2022/11/06 01:36:52;;;;;;;7.85;3.90;;;;;;;8.59;98.50;101115.47;2088299;28;31938;-73
2022/11/06 01:37:54;;;;;;;13.23;4.32;;;;;;;8.59;99.07;101118.13;2088470;28;32980;-73
2022/11/06 01:38:59;;;;;;;12.18;4.15;;;;;;;8.61;97.49;101108.31;2088593;28;34817;-73
2022/11/06 01:40:01;;;;;;;8.50;4.20;;;;;;;8.59;98.99;101112.81;2088830;28;20042;-73
2022/11/06 01:41:03;;;;;;;11.35;4.45;;;;;;;8.61;98.37;101113.66;2088294;28;20046;-73
2022/11/06 01:42:04;;;;;;;11.05;4.40;;;;;;;8.62;98.05;101114.56;2088701;28;30227;-73
2022/11/06 01:43:49;;;;;;;8.43;4.18;;;;;;;8.63;98.31;101110.97;2088596;28;31470;-73
2022/11/06 01:45:25;;;;;;;7.80;4.03;;;;;;;8.65;98.05;101109.16;2079272;28;38834;-73
2022/11/06 01:46:34;;;;;;;6.10;3.90;;;;;;;8.66;97.20;101111.81;2087952;28;31893;-73
2022/11/06 01:47:36;;;;;;;9.07;4.07;;;;;;;8.68;97.25;101118.03;2087519;28;38672;-73
2022/11/06 01:48:42;;;;;;;9.73;4.10;;;;;;;8.68;97.44;101109.16;2080258;28;38157;-71
2022/11/06 01:49:44;;;;;;;8.70;4.15;;;;;;;8.68;97.15;101099.34;2080717;28;32166;-73
2022/11/06 01:50:57;;;;;;;9.50;4.20;;;;;;;8.69;97.31;101111.78;2087529;28;39415;-72
2022/11/06 01:52:06;;;;;;;8.68;4.25;;;;;;;8.71;96.27;101119.78;2089221;28;20049;-73
2022/11/06 01:53:08;;;;;;;8.03;4.53;;;;;;;8.70;97.23;101110.88;2088196;28;32952;-73
2022/11/06 01:54:11;;;;;;;7.80;3.83;;;;;;;8.71;96.45;101109.13;2088138;28;31595;-73
2022/11/06 01:55:21;;;;;;;7.28;3.97;;;;;;;8.72;96.16;101114.44;2088565;28;28595;-73
2022/11/06 01:56:24;;;;;;;6.13;3.72;;;;;;;8.71;96.28;101115.31;2088463;28;31970;-73
2022/11/06 01:57:25;;;;;;;5.88;3.85;;;;;;;8.72;96.47;101108.19;2088123;28;37694;-73
2022/11/06 01:58:32;;;;;;;7.13;3.88;;;;;;;8.72;96.89;101101.09;2087361;28;24760;-73
2022/11/06 01:59:40;;;;;;;8.05;3.75;;;;;;;8.74;96.27;101101.03;2088372;28;20049;-73
2022/11/06 02:00:43;;;;;;;7.10;3.42;;;;;;;8.76;96.11;101104.59;2088088;28;27207;-73
2022/11/06 02:01:45;;;;;;;7.53;3.90;;;;;;;8.75;95.96;101101.03;2080367;28;33806;-73
2022/11/06 02:02:49;;;;;;;7.45;3.92;;;;;;;8.77;95.92;101101.00;2087595;28;25717;-73
2022/11/06 02:04:15;;;;;;;7.35;3.88;;;;;;;8.77;96.67;101082.31;2087159;28;36086;-73
2022/11/06 02:05:20;;;;;;;6.57;3.90;;;;;;;8.77;96.14;101093.00;2088446;28;20893;-72
2022/11/06 02:06:22;;;;;;;9.35;3.72;;;;;;;8.76;95.98;101097.47;2088148;28;35378;-73
2022/11/06 02:07:25;;;;;;;10.18;3.70;;;;;;;8.78;95.65;101081.44;2088208;28;32351;-73
2022/11/06 02:08:27;;;;;;;7.15;3.20;;;;;;;8.78;95.64;101087.66;2079941;28;20899;-73
2022/11/06 02:09:32;;;;;;;10.30;3.60;;;;;;;8.78;95.17;101090.31;2079691;28;33802;-73
2022/11/06 02:10:34;;;;;;;8.90;3.95;;;;;;;8.79;96.25;101097.44;2087603;28;31398;-73
2022/11/06 02:12:23;;;;;;;9.80;4.00;;;;;;;8.79;95.05;101089.44;2079873;28;31959;-73
2022/11/06 02:13:43;;;;;;;8.65;3.42;;;;;;;8.78;95.41;101084.97;2086441;28;38943;-72
2022/11/06 02:15:05;;;;;;;12.52;3.97;;;;;;;8.77;95.54;101085.91;2082082;28;31493;-72
2022/11/06 02:16:39;;;;;;;8.02;3.58;;;;;;;8.78;96.80;101089.44;2083945;28;27953;-73
2022/11/06 02:17:42;;;;;;;9.32;3.97;;;;;;;8.77;96.59;101091.25;2088510;28;20046;-73
2022/11/06 02:18:52;;;;;;;9.77;3.80;;;;;;;8.78;95.35;101079.63;2088305;28;35107;-72
2022/11/06 02:20:14;;;;;;;6.57;3.80;;;;;;;8.78;96.21;101094.78;2088955;28;20438;-73
2022/11/06 02:21:56;;;;;;;8.05;3.33;;;;;;;8.78;96.26;101100.13;2088161;28;32424;-73
2022/11/06 02:23:55;;;;;;;10.88;3.80;;;;;;;8.76;95.98;101094.81;2087561;28;20057;-73
2022/11/06 02:25:08;;;;;;;7.15;3.58;;;;;;;8.74;96.39;101091.28;2070428;28;32867;-72
2022/11/06 02:26:57;;;;;;;7.18;3.50;;;;;;;8.76;95.44;101086.78;2071083;28;26619;-72
2022/11/06 02:28:13;;;;;;;8.88;3.47;;;;;;;8.75;95.72;101078.78;2078047;28;31788;-71
2022/11/06 02:29:47;;;;;;;8.95;2.97;;;;;;;8.72;96.26;101089.50;2087186;28;34309;-71
2022/11/06 02:30:54;;;;;;;7.07;3.30;;;;;;;8.68;96.46;101088.66;2085916;28;20050;-73
2022/11/06 02:31:59;;;;;;;5.00;3.30;;;;;;;8.68;96.86;101083.31;2080169;28;30996;-73
2022/11/06 02:33:17;;;;;;;9.25;3.70;;;;;;;8.66;95.79;101095.81;2080677;28;36613;-73
2022/11/06 02:34:25;;;;;;;9.48;3.70;;;;;;;8.66;96.38;101087.81;2082366;28;30962;-73
2022/11/06 02:35:49;;;;;;;8.00;3.65;;;;;;;8.66;96.49;101085.13;2080666;28;39578;-73
2022/11/06 02:37:00;;;;;;;6.90;3.58;;;;;;;8.64;96.21;101092.28;2087971;28;34099;-72
2022/11/06 02:38:19;;;;;;;8.38;3.72;;;;;;;8.63;95.77;101077.16;2087966;28;33080;-72
2022/11/06 02:39:26;;;;;;;10.48;3.25;;;;;;;8.62;96.16;101083.41;2088038;28;21018;-72
2022/11/06 02:40:35;;;;;;;6.82;3.45;;;;;;;8.63;95.89;101087.84;2087453;28;32813;-72
2022/11/06 02:41:42;;;;;;;7.90;3.17;;;;;;;8.64;96.07;101070.94;2087745;28;23436;-73
2022/11/06 02:42:51;;;;;;;7.70;3.22;;;;;;;8.64;96.52;101070.94;2082655;28;20041;-72
2022/11/06 02:43:56;;;;;;;7.00;3.25;;;;;;;8.62;96.19;101066.53;2087751;28;28078;-73
2022/11/06 02:45:00;;;;;;;6.97;2.75;;;;;;;8.62;96.45;101062.06;2087199;28;32536;-72
2022/11/06 02:46:53;;;;;;;9.20;3.55;;;;;;;8.62;96.27;101067.41;2088148;28;20162;-71
2022/11/06 02:47:58;;;;;;;8.00;3.10;;;;;;;8.61;95.46;101060.28;2079864;28;30416;-71
2022/11/06 02:49:18;;;;;;;7.40;3.15;;;;;;;8.61;96.37;101054.94;2087624;28;32195;-72
2022/11/06 02:50:30;;;;;;;9.25;3.35;;;;;;;8.62;95.38;101058.53;2082538;28;30318;-72
2022/11/06 02:51:39;;;;;;;7.75;3.40;;;;;;;8.61;95.65;101054.94;2081732;28;34519;-72
2022/11/06 02:52:51;;;;;;;8.63;3.33;;;;;;;8.59;95.95;101056.75;2081167;28;20065;-72
2022/11/06 02:53:59;;;;;;;7.13;2.92;;;;;;;8.56;96.12;101057.69;2087570;28;35213;-71
2022/11/06 02:55:10;;;;;;;8.25;3.20;;;;;;;8.55;96.50;101060.38;2087476;28;34403;-71
2022/11/06 02:56:21;;;;;;;10.85;3.08;;;;;;;8.56;96.14;101062.13;2087571;28;30979;-72
2022/11/06 02:57:32;;;;;;;9.63;3.50;;;;;;;8.53;96.26;101055.06;2087985;28;33487;-72
2022/11/06 02:58:45;;;;;;;8.35;3.42;;;;;;;8.52;96.74;101049.72;2087770;28;28035;-72
2022/11/06 03:00:04;;;;;;;6.43;3.20;;;;;;;8.51;96.47;101056.00;2087713;28;27854;-72
2022/11/06 03:01:18;;;;;;;6.20;2.97;;;;;;;8.48;96.09;101040.00;2086715;28;31038;-72
2022/11/06 03:02:29;;;;;;;6.65;3.30;;;;;;;8.44;96.54;101051.63;2087436;28;41416;-72
2022/11/06 03:03:38;;;;;;;9.07;3.00;;;;;;;8.43;96.68;101045.38;2084618;28;36864;-72
2022/11/06 03:05:18;;;;;;;5.25;3.22;;;;;;;8.41;96.27;101045.38;2079167;28;36600;-72
2022/11/06 03:06:57;;;;;;;6.70;3.50;;;;;;;8.36;96.64;101049.91;2079517;28;31504;-72
2022/11/06 03:08:17;;;;;;;6.78;2.85;;;;;;;8.43;96.81;101052.53;2076155;28;34136;-72
2022/11/06 03:09:27;;;;;;;;;;;;;;;8.39;96.21;101049.84;2079141;28;34079;-72
2022/11/06 03:10:42;;;;;;;5.75;2.97;;;;;;;8.36;96.63;101041.91;2079345;28;37504;-72
2022/11/06 03:11:52;;;;;;;6.47;3.25;;;;;;;8.40;96.49;101053.41;2079570;28;38226;-71
2022/11/06 03:13:23;;;;;;;7.88;3.33;;;;;;;8.39;97.33;101043.63;2082226;28;36588;-72
2022/11/06 03:14:38;;;;;;;5.57;3.40;;;;;;;8.39;97.59;101051.63;2086874;28;31614;-72
2022/11/06 03:16:05;;;;;;;7.18;2.63;;;;;;;8.40;97.24;101048.97;2082817;28;21023;-72
2022/11/06 03:17:42;;;;;;;9.07;3.45;;;;;;;8.40;97.26;101050.75;2087405;28;35027;-72
2022/11/06 03:19:25;;;;;;;6.25;3.25;;;;;;;8.39;96.77;101055.19;2087482;28;31900;-71
2022/11/06 03:20:39;;;;;;;5.20;3.00;;;;;;;8.39;96.67;101048.97;2087579;28;41250;-72
2022/11/06 03:22:09;;;;;;;9.70;3.00;;;;;;;8.37;97.32;101051.66;2087935;28;31929;-72
2022/11/06 03:23:21;;;;;;;6.63;3.03;;;;;;;8.36;96.43;101044.56;2087188;28;39407;-72
2022/11/06 03:24:45;;;;;;;10.70;3.40;;;;;;;8.34;97.15;101046.34;2080001;28;36281;-72
2022/11/06 03:26:07;;;;;;;8.02;3.17;;;;;;;8.34;97.57;101043.69;2083545;28;32803;-72
2022/11/06 03:27:24;;;;;;;6.07;2.97;;;;;;;8.38;96.39;101041.84;2088451;28;20029;-72
2022/11/06 03:28:34;;;;;;;7.72;3.45;;;;;;;8.37;96.96;101045.44;2087654;28;35927;-72
2022/11/06 03:30:01;;;;;;;6.63;3.13;;;;;;;8.36;97.25;101047.25;2086783;28;27352;-71
2022/11/06 03:31:13;;;;;;;7.10;2.97;;;;;;;8.39;97.73;101051.63;2083236;28;35442;-72
2022/11/06 03:32:50;;;;;;;6.63;3.38;;;;;;;8.38;96.79;101047.19;2083525;28;20045;-71
2022/11/06 03:34:00;;;;;;;7.13;3.03;;;;;;;8.40;97.03;101046.28;2080180;28;35298;-72
2022/11/06 03:35:15;;;;;;;12.68;3.65;;;;;;;8.42;96.45;101040.97;2087403;28;29026;-71
2022/11/06 03:36:42;;;;;;;10.15;3.40;;;;;;;8.44;97.17;101043.63;2081723;28;39277;-71
2022/11/06 03:37:55;;;;;;;7.32;3.30;;;;;;;8.47;95.82;101039.13;2088710;28;20910;-72
2022/11/06 03:39:08;;;;;;;9.80;3.33;;;;;;;8.47;96.49;101040.91;2086730;28;39831;-71
2022/11/06 03:40:16;;;;;;;4.72;2.90;;;;;;;8.49;95.96;101040.00;2081373;28;34392;-71
2022/11/06 03:41:47;;;;;;;9.38;3.78;;;;;;;8.48;96.28;101032.88;2079829;28;32011;-72
2022/11/06 03:42:53;;;;;;;5.60;3.47;;;;;;;8.51;96.86;101031.97;2083129;28;30079;-71
2022/11/06 03:43:58;;;;;;;7.60;3.25;;;;;;;8.50;96.35;101036.41;2086834;28;33894;-72
2022/11/06 03:45:08;;;;;;;7.13;3.38;;;;;;;8.50;97.04;101033.75;2086879;28;37465;-72
2022/11/06 03:46:18;;;;;;;6.68;3.13;;;;;;;8.52;96.55;101033.72;2081250;28;20128;-71
2022/11/06 03:47:27;;;;;;;8.23;3.28;;;;;;;8.57;95.48;101029.22;2080848;28;37823;-71
2022/11/06 03:48:46;;;;;;;7.80;3.13;;;;;;;8.57;95.64;101031.88;2080913;28;33266;-71
2022/11/06 03:49:59;;;;;;;7.75;3.60;;;;;;;8.59;96.05;101032.75;2082191;28;32581;-71
2022/11/06 03:51:29;;;;;;;3.95;2.78;;;;;;;8.60;96.49;101032.72;2081692;28;34061;-71
2022/11/06 03:52:40;;;;;;;;;;;;;;;8.60;95.59;101034.50;2087992;28;30402;-71
2022/11/06 03:53:59;;;;;;;8.23;2.92;;;;;;;8.60;96.44;101035.38;2087739;28;31505;-72
2022/11/06 03:55:13;;;;;;;7.55;3.05;;;;;;;8.60;96.46;101035.38;2087843;28;34003;-72
2022/11/06 03:56:20;;;;;;;5.82;2.67;;;;;;;8.60;96.12;101031.84;2087600;28;40011;-71
2022/11/06 03:57:37;;;;;;;8.07;3.15;;;;;;;8.59;96.56;101030.94;2087055;28;33243;-71
2022/11/06 03:58:45;;;;;;;7.95;3.33;;;;;;;8.60;96.70;101034.50;2081902;28;29729;-71
2022/11/06 03:59:54;;;;;;;7.35;3.28;;;;;;;8.60;96.20;101031.84;2081009;28;38363;-73
2022/11/06 04:01:00;;;;;;;6.93;3.28;;;;;;;8.59;96.68;101033.59;2080775;28;37254;-71
2022/11/06 04:02:02;;;;;;;6.18;3.30;;;;;;;8.57;96.77;101040.75;2086873;28;36948;-72
2022/11/06 04:03:19;;;;;;;6.57;3.45;;;;;;;8.58;97.08;101041.66;2088098;28;20148;-73
2022/11/06 04:04:34;;;;;;;6.47;3.40;;;;;;;8.57;97.71;101043.44;2080869;28;30965;-73
2022/11/06 04:05:52;;;;;;;9.43;3.42;;;;;;;8.57;97.44;101047.88;2078065;28;20038;-73
2022/11/06 04:07:11;;;;;;;9.45;3.35;;;;;;;8.55;97.86;101041.69;2076231;28;35194;-73
2022/11/06 04:14:04;;;;;;;8.18;3.28;;;;;;;8.44;100.00;101032.97;2090360;28;30191;-68
2022/11/06 04:15:11;;;;;;;8.60;3.60;;;;;;;8.39;100.00;101041.84;2081621;28;20260;-65
2022/11/06 04:16:14;;;;;;;6.18;3.72;;;;;;;8.37;100.00;101045.44;2075352;28;37776;-69
2022/11/06 04:17:17;;;;;;;9.50;3.55;;;;;;;8.32;100.00;101039.28;2082350;28;30845;-65
2022/11/06 04:18:19;;;;;;;7.43;3.90;;;;;;;8.29;100.00;101041.97;2073009;28;38530;-68
2022/11/06 04:19:22;;;;;;;7.85;4.03;;;;;;;8.27;100.00;101039.31;2073346;28;31171;-68
2022/11/06 04:22:09;;;;;;;8.93;4.10;;;;;;;8.23;100.00;101042.94;2089520;28;34506;-67
2022/11/06 04:26:34;;;;;;;9.68;4.30;;;;;;;8.21;100.00;101042.06;2090344;28;30431;-72
2022/11/06 04:28:01;;;;;;;6.97;4.00;;;;;;;8.17;100.00;101043.03;2064760;28;27359;-70
2022/11/06 04:29:47;;;;;;;8.77;3.78;;;;;;;8.15;100.00;101044.81;2034605;28;29508;-72
2022/11/06 04:31:07;;;;;;;10.27;4.18;;;;;;;8.14;100.00;101043.91;2056789;28;34172;-68
2022/11/06 04:32:30;;;;;;;10.00;3.72;;;;;;;8.16;100.00;101041.25;2052964;28;28177;-69
2022/11/06 04:33:43;;;;;;;9.63;3.78;;;;;;;8.15;100.00;101043.03;2085135;28;36026;-71
2022/11/06 04:35:23;;;;;;;6.30;3.75;;;;;;;8.18;100.00;101043.00;2083173;28;34789;-74
2022/11/06 04:36:38;;;;;;;9.27;3.95;;;;;;;8.17;100.00;101043.03;2073014;28;29270;-68
2022/11/06 04:38:32;;;;;;;7.55;3.60;;;;;;;8.19;100.00;101046.53;2088737;28;32155;-70
2022/11/06 04:40:03;;;;;;;10.40;3.40;;;;;;;8.20;100.00;101042.97;2067735;28;20086;-64
2022/11/06 04:41:33;;;;;;;6.32;3.22;;;;;;;8.22;100.00;101051.84;2073780;28;30075;-67
2022/11/06 04:42:56;;;;;;;7.82;3.85;;;;;;;8.23;100.00;101042.94;2084714;28;20046;-74
2022/11/06 04:44:02;;;;;;;9.68;3.80;;;;;;;8.25;100.00;101041.13;2080324;28;41685;-68
2022/11/06 04:45:22;;;;;;;5.68;3.22;;;;;;;8.25;100.00;101033.13;2067022;28;20051;-66
2022/11/06 04:46:38;;;;;;;7.35;2.97;;;;;;;8.28;100.00;101040.22;2079163;28;20038;-75
2022/11/06 04:47:41;;;;;;;10.57;3.40;;;;;;;8.29;100.00;101042.88;2086018;28;22386;-67
2022/11/06 04:48:45;;;;;;;5.38;2.75;;;;;;;8.31;100.00;101041.06;2081215;28;34229;-72
2022/11/06 04:49:51;;;;;;;5.43;3.95;;;;;;;8.30;100.00;101041.97;2081596;28;29581;-72
2022/11/06 04:51:00;;;;;;;7.10;3.20;;;;;;;8.31;100.00;101043.75;2082220;28;29321;-70
2022/11/06 04:52:07;;;;;;;7.97;3.33;;;;;;;8.30;100.00;101035.75;2082371;28;36561;-65
2022/11/06 04:53:10;;;;;;;6.63;3.10;;;;;;;8.31;100.00;101041.06;2073658;28;29783;-73
2022/11/06 04:54:13;;;;;;;8.85;3.58;;;;;;;8.33;100.00;101041.94;2073870;28;29646;-66
2022/11/06 04:55:16;;;;;;;6.93;3.42;;;;;;;8.32;100.00;101042.81;2082232;28;29974;-71
2022/11/06 04:56:28;;;;;;;8.07;3.05;;;;;;;8.33;100.00;101036.59;2064808;28;33356;-65
2022/11/06 04:57:32;;;;;;;8.25;3.33;;;;;;;8.36;100.00;101044.56;2071014;28;20288;-64
2022/11/06 04:58:34;;;;;;;7.28;3.10;;;;;;;8.35;100.00;101042.78;2081795;28;31402;-65
2022/11/06 04:59:36;;;;;;;7.55;3.40;;;;;;;8.36;100.00;101039.25;2081398;28;35967;-68
2022/11/06 05:00:43;;;;;;;8.27;3.25;;;;;;;8.35;100.00;101040.13;2080841;28;34380;-68
2022/11/06 05:01:46;;;;;;;7.43;2.92;;;;;;;8.35;100.00;101037.44;2082099;28;20127;-70
2022/11/06 05:02:48;;;;;;;7.35;3.67;;;;;;;8.36;100.00;101044.56;2065114;28;35412;-70
2022/11/06 05:03:50;;;;;;;5.32;2.97;;;;;;;8.35;100.00;101044.59;2073899;28;20042;-65
2022/11/06 05:04:52;;;;;;;8.95;3.40;;;;;;;8.35;100.00;101042.78;2073249;28;28683;-66
2022/11/06 05:05:54;;;;;;;7.68;3.22;;;;;;;8.32;100.00;101042.81;2082862;28;20115;-67
2022/11/06 05:06:56;;;;;;;5.28;2.97;;;;;;;8.27;100.00;101028.66;2089646;28;27228;-72
2022/11/06 05:07:57;;;;;;;8.40;3.47;;;;;;;8.26;100.00;101037.56;2081262;28;30089;-71
2022/11/06 05:09:00;;;;;;;5.72;3.22;;;;;;;8.23;100.00;101042.94;2080702;28;38831;-66
2022/11/06 05:10:02;;;;;;;7.63;3.75;;;;;;;8.22;100.00;101038.53;2081350;28;31031;-72
2022/11/06 05:11:05;;;;;;;7.10;3.38;;;;;;;8.22;100.00;101041.19;2073250;28;40423;-73
2022/11/06 05:12:08;;;;;;;8.30;4.00;;;;;;;8.20;100.00;101045.63;2074156;28;20034;-73
2022/11/06 05:13:11;;;;;;;9.55;4.00;;;;;;;8.18;100.00;101040.34;2089200;28;33848;-73
2022/11/06 05:14:12;;;;;;;8.27;3.47;;;;;;;8.18;100.00;101042.09;2089722;28;38907;-73
2022/11/06 05:15:14;;;;;;;8.38;3.75;;;;;;;8.16;100.00;101044.78;2089641;28;30925;-74
2022/11/06 05:16:16;;;;;;;8.27;4.25;;;;;;;8.14;100.00;101043.03;2087962;28;40350;-74
2022/11/06 05:17:18;;;;;;;11.52;3.47;;;;;;;8.15;100.00;101042.16;2088882;28;20045;-74
2022/11/06 05:18:23;;;;;;;7.03;3.53;;;;;;;8.14;100.00;101043.03;2088941;28;29892;-74
2022/11/06 05:19:24;;;;;;;9.63;3.13;;;;;;;8.14;100.00;101048.38;2088446;28;34246;-73
2022/11/06 05:20:26;;;;;;;8.98;3.97;;;;;;;8.14;100.00;101043.03;2088939;28;29968;-74
2022/11/06 05:22:57;;;;;;;7.13;3.47;;;;;;;8.14;100.00;101037.72;2088477;28;32041;-74
2022/11/06 05:23:58;;;;;;;8.05;3.60;;;;;;;8.13;100.00;101036.84;2087940;28;37720;-73
2022/11/06 05:25:00;;;;;;;8.40;3.58;;;;;;;8.14;100.00;101037.72;2088574;28;38903;-74
2022/11/06 05:26:06;;;;;;;9.30;3.55;;;;;;;8.13;100.00;101035.94;2088966;28;20046;-73
2022/11/06 05:27:08;;;;;;;7.72;3.28;;;;;;;8.14;100.00;101037.72;2087991;28;36202;-75
2022/11/06 05:28:09;;;;;;;9.65;3.50;;;;;;;8.15;100.00;101036.81;2087504;28;40225;-76
2022/11/06 05:29:12;;;;;;;7.00;3.15;;;;;;;8.18;100.00;101023.44;2088172;28;27784;-76
2022/11/06 05:30:14;;;;;;;6.55;3.03;;;;;;;8.19;100.00;101030.53;2087544;28;33200;-76
2022/11/06 05:31:16;;;;;;;12.07;3.15;;;;;;;8.19;100.00;101025.22;2088490;28;20040;-76
2022/11/06 05:32:17;;;;;;;7.10;3.35;;;;;;;8.19;100.00;101027.88;2087257;28;35565;-76
2022/11/06 05:33:19;;;;;;;8.30;2.97;;;;;;;8.19;100.00;101030.53;2088035;28;38435;-76
2022/11/06 05:34:21;;;;;;;9.85;3.47;;;;;;;8.18;100.00;101021.66;2089106;28;20044;-76
2022/11/06 05:35:23;;;;;;;7.35;3.60;;;;;;;8.16;100.00;101039.44;2088482;28;34153;-76
2022/11/06 05:36:25;;;;;;;9.60;3.53;;;;;;;8.15;100.00;101028.81;2088483;28;28811;-76
2022/11/06 05:37:27;;;;;;;6.65;3.22;;;;;;;8.13;100.00;101031.50;2088494;28;34140;-76
2022/11/06 05:38:29;;;;;;;9.68;4.03;;;;;;;8.11;100.00;101033.31;2086889;28;35246;-76